createdAt,value
2023-01-01T00:00:44.399Z,100.00
2023-01-01T00:05:46.188Z,100.00
2023-01-01T00:10:47.867Z,100.00
2023-01-01T00:15:49.571Z,100.00
2023-01-01T00:20:51.177Z,100.00
2023-01-01T00:25:52.797Z,100.00
2023-01-01T00:30:55.218Z,100.00
2023-01-01T00:35:56.851Z,100.00
2023-01-01T00:40:58.613Z,100.00
2023-01-01T00:46:00.361Z,100.00
2023-01-01T00:51:02.361Z,100.00
2023-01-01T00:56:04.953Z,100.00
2023-01-01T01:01:07.055Z,100.00
2023-01-01T01:06:12.905Z,100.00
2023-01-01T01:11:16.323Z,99.97
2023-01-01T01:16:18.180Z,100.00
2023-01-01T01:21:22.745Z,100.00
2023-01-01T01:26:27.892Z,99.83
2023-01-01T01:31:31.904Z,100.00
2023-01-01T01:36:33.529Z,99.25
2023-01-01T01:41:35.219Z,99.17
2023-01-01T01:46:41.631Z,98.79
2023-01-01T01:51:45.084Z,98.25
2023-01-01T01:56:57.674Z,98.66
2023-01-01T02:02:00.528Z,98.58
2023-01-01T02:07:02.491Z,98.12
2023-01-01T02:12:04.229Z,98.17
2023-01-01T02:17:14.606Z,98.76
2023-01-01T02:22:24.931Z,97.70
2023-01-01T02:28:04.196Z,97.08
2023-01-01T02:33:12.294Z,96.81
2023-01-01T02:38:30.483Z,96.89
2023-01-01T02:43:32.475Z,96.01
2023-01-01T02:48:48.804Z,95.42
2023-01-01T02:54:02.625Z,96.33
2023-01-01T02:59:47.740Z,96.14
2023-01-01T03:05:11.024Z,95.91
2023-01-01T03:10:21.985Z,96.03
2023-01-01T03:15:31.247Z,95.74
2023-01-01T03:20:38.505Z,96.40
2023-01-01T03:25:48.294Z,95.39
2023-01-01T03:30:52.830Z,95.85
2023-01-01T03:36:01.094Z,96.26
2023-01-01T03:41:08.340Z,96.21
2023-01-01T03:46:12.996Z,96.15
2023-01-01T03:51:32.727Z,96.66
2023-01-01T03:56:45.954Z,96.86
2023-01-01T04:01:57.416Z,96.75
2023-01-01T04:07:09.293Z,96.48
2023-01-01T04:12:18.376Z,96.45
2023-01-01T04:17:20.039Z,96.89
2023-01-01T04:22:23.723Z,96.33
2023-01-01T04:27:25.587Z,95.92
2023-01-01T04:32:27.246Z,95.47
2023-01-01T04:37:28.868Z,95.22
2023-01-01T04:42:30.657Z,95.81
2023-01-01T04:47:32.583Z,94.57
2023-01-01T04:52:34.221Z,94.48
2023-01-01T04:57:35.884Z,94.98
2023-01-01T05:02:37.633Z,94.46
2023-01-01T05:07:39.377Z,95.06
2023-01-01T05:12:41.077Z,94.96
2023-01-01T05:17:42.840Z,95.03
2023-01-01T05:22:47.052Z,94.95
2023-01-01T05:27:48.769Z,94.86
2023-01-01T05:32:50.490Z,95.59
2023-01-01T05:37:52.139Z,95.18
2023-01-01T05:42:53.825Z,95.26
2023-01-01T05:47:56.623Z,95.22
2023-01-01T05:52:58.327Z,94.24
2023-01-01T05:58:00.055Z,94.43
2023-01-01T06:03:01.821Z,94.28
2023-01-01T06:08:03.536Z,94.54
2023-01-01T06:13:11.147Z,94.69
2023-01-01T06:18:14.723Z,94.60
2023-01-01T06:23:16.708Z,94.99
2023-01-01T06:28:18.398Z,94.83
2023-01-01T06:33:20.080Z,94.88
2023-01-01T06:38:21.819Z,94.79
2023-01-01T06:43:23.540Z,95.58
2023-01-01T06:48:25.155Z,95.04
2023-01-01T06:53:27.145Z,94.39
2023-01-01T06:58:29.107Z,94.86
2023-01-01T07:03:30.880Z,95.08
2023-01-01T07:08:33.144Z,95.32
2023-01-01T07:13:34.983Z,95.95
2023-01-01T07:18:36.663Z,95.85
2023-01-01T07:23:38.308Z,95.61
2023-01-01T07:28:39.967Z,96.36
2023-01-01T07:33:41.627Z,96.08
2023-01-01T07:38:43.495Z,97.23
2023-01-01T07:43:45.205Z,97.12
2023-01-01T07:48:47.375Z,97.09
2023-01-01T07:53:49.098Z,97.87
2023-01-01T07:58:50.816Z,97.08
2023-01-01T08:03:53.123Z,97.31
2023-01-01T08:08:54.825Z,97.13
2023-01-01T08:13:56.541Z,97.45
2023-01-01T08:18:58.215Z,98.58
2023-01-01T08:24:00.015Z,98.49
2023-01-01T08:29:06.831Z,98.30
2023-01-01T08:34:08.638Z,99.71
2023-01-01T08:39:10.400Z,100.00
2023-01-01T08:44:12.052Z,99.82
2023-01-01T08:49:13.737Z,99.96
2023-01-01T08:54:15.435Z,99.71
2023-01-01T08:59:17.228Z,99.96
2023-01-01T09:04:18.976Z,100.00
2023-01-01T09:09:24.307Z,100.00
2023-01-01T09:14:29.050Z,100.00
2023-01-01T09:19:30.849Z,100.00
2023-01-01T09:24:32.648Z,100.00
2023-01-01T09:29:34.421Z,100.00
2023-01-01T09:34:36.419Z,100.00
2023-01-01T09:39:38.117Z,100.00
2023-01-01T09:44:45.779Z,100.00
2023-01-01T09:49:49.149Z,100.00
2023-01-01T09:54:57.857Z,100.00
2023-01-01T10:00:00.048Z,100.00
2023-01-01T10:05:21.717Z,100.00
2023-01-01T10:10:55.579Z,100.00
2023-01-01T10:16:24.708Z,100.00
2023-01-01T10:21:35.788Z,100.00
2023-01-01T10:26:38.780Z,100.00
2023-01-01T10:31:45.471Z,100.00
2023-01-01T10:36:47.091Z,100.00
2023-01-01T10:41:49.196Z,100.00
2023-01-01T10:46:56.295Z,99.84
2023-01-01T10:51:59.435Z,100.00
2023-01-01T10:57:14.669Z,99.79
2023-01-01T11:02:27.597Z,100.00
2023-01-01T11:07:33.943Z,100.00
2023-01-01T11:13:04.104Z,100.00
2023-01-01T11:18:10.863Z,100.00
2023-01-01T11:23:39.944Z,100.00
2023-01-01T11:28:41.917Z,100.00
2023-01-01T11:33:49.229Z,100.00
2023-01-01T11:39:06.041Z,99.72
2023-01-01T11:44:11.121Z,100.00
2023-01-01T11:49:15.325Z,100.00
2023-01-01T11:54:34.282Z,100.00
2023-01-01T11:59:49.822Z,100.00
2023-01-01T12:05:01.125Z,100.00
2023-01-01T12:10:16.416Z,100.00
2023-01-01T12:15:41.735Z,99.66
2023-01-01T12:20:59.278Z,100.00
2023-01-01T12:26:13.075Z,98.28
2023-01-01T12:31:58.009Z,98.78
2023-01-01T12:37:46.212Z,99.30
2023-01-01T12:43:15.978Z,98.43
2023-01-01T12:48:30.923Z,99.66
2023-01-01T12:53:38.840Z,98.56
2023-01-01T12:58:52.772Z,99.59
2023-01-01T13:04:05.528Z,99.59
2023-01-01T13:09:14.988Z,97.42
2023-01-01T13:14:16.876Z,97.52
2023-01-01T13:19:31.722Z,97.02
2023-01-01T13:24:33.463Z,96.62
2023-01-01T13:29:42.534Z,95.16
2023-01-01T13:35:00.334Z,96.76
2023-01-01T13:40:29.442Z,96.37
2023-01-01T13:46:11.218Z,96.61
2023-01-01T13:52:03.352Z,97.26
2023-01-01T13:56:57.651Z,98.99
2023-01-01T14:02:10.868Z,96.45
2023-01-01T14:07:51.657Z,95.02
2023-01-01T14:13:02.178Z,99.45
2023-01-01T14:18:17.776Z,100.00
2023-01-01T14:23:28.465Z,100.00
2023-01-01T14:28:32.654Z,100.00
2023-01-01T14:33:34.529Z,100.00
2023-01-01T14:38:43.307Z,100.00
2023-01-01T14:43:50.865Z,100.00
2023-01-01T14:48:55.707Z,100.00
2023-01-01T14:54:03.520Z,100.00
2023-01-01T14:59:24.321Z,100.00
2023-01-01T15:04:26.224Z,100.00
2023-01-01T15:09:30.709Z,100.00
2023-01-01T15:14:39.432Z,100.00
2023-01-01T15:19:43.890Z,100.00
2023-01-01T15:24:46.217Z,100.00
2023-01-01T15:29:48.025Z,100.00
2023-01-01T15:34:53.168Z,100.00
2023-01-01T15:40:00.488Z,100.00
2023-01-01T15:45:17.515Z,100.00
2023-01-01T15:51:00.392Z,100.00
2023-01-01T15:56:05.761Z,100.00
2023-01-01T16:01:11.360Z,100.00
2023-01-01T16:06:18.150Z,100.00
2023-01-01T16:11:19.911Z,100.00
2023-01-01T16:16:28.870Z,100.00
2023-01-01T16:21:34.895Z,100.00
2023-01-01T16:26:36.632Z,100.00
2023-01-01T16:31:38.859Z,100.00
2023-01-01T16:36:40.863Z,100.00
2023-01-01T16:41:44.250Z,100.00
2023-01-01T16:46:46.061Z,100.00
2023-01-01T16:51:47.895Z,100.00
2023-01-01T16:56:49.633Z,100.00
2023-01-01T17:01:51.739Z,100.00
2023-01-01T17:06:55.402Z,100.00
2023-01-01T17:11:57.132Z,100.00
2023-01-01T17:16:59.977Z,100.00
2023-01-01T17:22:01.910Z,100.00
2023-01-01T17:27:03.778Z,100.00
2023-01-01T17:32:06.017Z,100.00
2023-01-01T17:37:07.882Z,100.00
2023-01-01T17:42:09.735Z,100.00
2023-01-01T17:47:11.515Z,100.00
2023-01-01T17:52:13.228Z,100.00
2023-01-01T17:57:15.216Z,100.00
2023-01-01T18:02:17.084Z,100.00
2023-01-01T18:07:20.295Z,100.00
2023-01-01T18:12:22.377Z,100.00
2023-01-01T18:17:24.315Z,100.00
2023-01-01T18:22:26.635Z,100.00
2023-01-01T18:27:28.600Z,100.00
2023-01-01T18:32:30.294Z,100.00
2023-01-01T18:37:33.675Z,100.00
2023-01-01T18:42:39.305Z,100.00
2023-01-01T18:47:41.324Z,100.00
2023-01-01T18:52:43.573Z,100.00
2023-01-01T18:57:50.269Z,100.00
2023-01-01T19:02:56.695Z,100.00
2023-01-01T19:08:07.933Z,100.00
2023-01-01T19:13:14.598Z,100.00
2023-01-01T19:18:21.755Z,100.00
2023-01-01T19:23:24.807Z,100.00
2023-01-01T19:28:37.490Z,100.00
2023-01-01T19:33:45.833Z,100.00
2023-01-01T19:38:48.086Z,100.00
2023-01-01T19:43:50.236Z,100.00
2023-01-01T19:48:53.832Z,100.00
2023-01-01T19:53:56.006Z,100.00
2023-01-01T19:58:58.132Z,100.00
2023-01-01T20:04:00.836Z,100.00
2023-01-01T20:09:03.467Z,100.00
2023-01-01T20:14:05.795Z,100.00
2023-01-01T20:19:08.124Z,100.00
2023-01-01T20:24:11.640Z,100.00
2023-01-01T20:29:20.480Z,100.00
2023-01-01T20:34:23.733Z,100.00
2023-01-01T20:39:26.912Z,100.00
2023-01-01T20:44:30.237Z,100.00
2023-01-01T20:49:32.925Z,100.00
2023-01-01T20:54:37.730Z,100.00
2023-01-01T20:59:41.557Z,100.00
2023-01-01T21:04:43.860Z,100.00
2023-01-01T21:09:46.813Z,100.00
2023-01-01T21:14:49.711Z,100.00
2023-01-01T21:19:56.208Z,100.00
2023-01-01T21:25:16.838Z,100.00
2023-01-01T21:30:20.970Z,100.00
2023-01-01T21:35:33.681Z,100.00
2023-01-01T21:40:51.890Z,100.00
2023-01-01T21:45:55.435Z,100.00
2023-01-01T21:50:57.803Z,100.00
2023-01-01T21:56:04.877Z,100.00
2023-01-01T22:01:36.170Z,100.00
2023-01-01T22:06:39.472Z,100.00
2023-01-01T22:11:41.726Z,100.00
2023-01-01T22:16:45.121Z,100.00
2023-01-01T22:21:48.092Z,100.00
2023-01-01T22:26:49.756Z,100.00
2023-01-01T22:32:11.981Z,100.00
2023-01-01T22:37:22.020Z,100.00
2023-01-01T22:42:23.759Z,100.00
2023-01-01T22:47:36.182Z,100.00
2023-01-01T22:52:37.854Z,100.00
2023-01-01T22:57:39.659Z,100.00
2023-01-01T23:02:41.393Z,100.00
2023-01-01T23:07:43.576Z,100.00
2023-01-01T23:12:45.280Z,100.00
2023-01-01T23:17:46.945Z,100.00
2023-01-01T23:22:53.333Z,100.00
2023-01-01T23:27:55.730Z,100.00
2023-01-01T23:32:57.506Z,100.00
2023-01-01T23:38:00.453Z,100.00
2023-01-01T23:43:02.225Z,100.00
2023-01-01T23:48:04.906Z,100.00
2023-01-01T23:53:06.675Z,100.00
2023-01-01T23:58:08.359Z,100.00
